createdAt,value
2019-05-14T00:01:42.988Z,97463.28
2019-05-14T00:04:11.498Z,97459.65
2019-05-14T00:06:38.762Z,97456.33
2019-05-14T00:09:05.854Z,97458.73
2019-05-14T00:11:32.931Z,97460.63
2019-05-14T00:14:01.291Z,97457.20
2019-05-14T00:16:28.489Z,97457.57
2019-05-14T00:18:55.551Z,97459.97
2019-05-14T00:21:22.652Z,97459.50
2019-05-14T00:23:51.417Z,97453.70
2019-05-14T00:26:18.590Z,97453.08
2019-05-14T00:28:45.694Z,97448.94
2019-05-14T00:31:12.728Z,97449.44
2019-05-14T00:33:41.767Z,97440.75
2019-05-14T00:36:11.114Z,97439.14
2019-05-14T00:38:37.751Z,97443.19
2019-05-14T00:41:04.817Z,97441.59
2019-05-14T00:43:32.510Z,97444.81
2019-05-14T00:46:01.689Z,97439.02
2019-05-14T00:48:28.646Z,97435.88
2019-05-14T00:50:55.808Z,97434.40
2019-05-14T00:53:22.854Z,97440.57
2019-05-14T00:55:51.605Z,97441.03
2019-05-14T00:58:18.902Z,97437.03
2019-05-14T01:00:45.967Z,97430.53
2019-05-14T01:03:13.043Z,97426.06
2019-05-14T01:05:41.345Z,97430.28
2019-05-14T01:08:08.579Z,97425.31
2019-05-14T01:10:35.661Z,97422.13
2019-05-14T01:13:02.744Z,97424.16
2019-05-14T01:15:32.055Z,97424.34
2019-05-14T01:17:59.089Z,97424.70
2019-05-14T01:20:26.585Z,97425.28
2019-05-14T01:22:53.635Z,97424.70
2019-05-14T01:25:27.172Z,97430.08
2019-05-14T01:27:54.236Z,97422.10
2019-05-14T01:30:21.494Z,97425.45
2019-05-14T01:32:48.581Z,97417.45
2019-05-14T01:35:15.639Z,97413.77
2019-05-14T01:37:42.699Z,97414.92
2019-05-14T01:40:11.398Z,97412.08
2019-05-14T01:42:41.340Z,97413.73
2019-05-14T01:45:21.105Z,97406.06
2019-05-14T01:47:36.714Z,97401.73
2019-05-14T01:50:04.025Z,97406.74
2019-05-14T01:52:31.818Z,97405.59
2019-05-14T01:54:58.982Z,97398.41
2019-05-14T01:57:26.036Z,97396.72
2019-05-14T01:59:53.091Z,97397.72
2019-05-14T02:02:22.096Z,97401.05
2019-05-14T02:04:51.323Z,97395.05
2019-05-14T02:07:18.097Z,97397.77
2019-05-14T02:09:45.142Z,97397.11
2019-05-14T02:12:12.231Z,97390.95
2019-05-14T02:14:39.291Z,97387.77
2019-05-14T02:17:08.250Z,97386.11
2019-05-14T02:19:35.294Z,97380.48
2019-05-14T02:22:02.350Z,97380.48
2019-05-14T02:24:29.402Z,97380.34
2019-05-14T02:26:56.449Z,97378.18
2019-05-14T02:29:23.470Z,97372.16
2019-05-14T02:31:50.837Z,97370.82
2019-05-14T02:34:19.828Z,97371.19
2019-05-14T02:36:49.613Z,97355.90
2019-05-14T02:39:15.844Z,97366.14
2019-05-14T02:41:42.894Z,97359.53
2019-05-14T02:44:10.239Z,97356.72
2019-05-14T02:46:40.452Z,97357.44
2019-05-14T02:49:06.292Z,97362.13
2019-05-14T02:51:33.345Z,97355.20
2019-05-14T02:54:00.378Z,97355.38
2019-05-14T02:56:29.502Z,97355.91
2019-05-14T02:58:59.760Z,97356.27
2019-05-14T03:01:25.398Z,97353.96
2019-05-14T03:03:52.434Z,97351.98
2019-05-14T03:06:20.291Z,97354.70
2019-05-14T03:08:49.399Z,97342.56
2019-05-14T03:11:19.819Z,97341.73
2019-05-14T03:13:45.428Z,97345.73
2019-05-14T03:16:29.054Z,97340.40
2019-05-14T03:18:41.466Z,97341.73
2019-05-14T03:21:09.371Z,97338.92
2019-05-14T03:23:39.264Z,97341.11
2019-05-14T03:26:05.547Z,97340.87
2019-05-14T03:28:32.614Z,97339.92
2019-05-14T03:31:02.927Z,97335.30
2019-05-14T03:33:32.984Z,97336.36
2019-05-14T03:36:06.319Z,97332.06
2019-05-14T03:38:29.476Z,97331.27
2019-05-14T03:40:59.805Z,97339.28
2019-05-14T03:43:25.372Z,97330.48
2019-05-14T03:45:52.451Z,97333.53
2019-05-14T03:48:19.629Z,97330.86
2019-05-14T03:50:49.627Z,97334.53
2019-05-14T03:53:18.673Z,97336.21
2019-05-14T03:55:44.690Z,97327.74
2019-05-14T03:58:11.794Z,97325.58
2019-05-14T04:00:51.512Z,97326.77
2019-05-14T04:03:19.798Z,97328.09
2019-05-14T04:05:49.485Z,97329.42
2019-05-14T04:08:20.981Z,97327.09
2019-05-14T04:10:53.504Z,97328.59
2019-05-14T04:13:19.825Z,97324.59
2019-05-14T04:15:49.772Z,97327.56
2019-05-14T04:18:18.587Z,97331.21
2019-05-14T04:20:45.726Z,97331.87
2019-05-14T04:23:14.663Z,97322.70
2019-05-14T04:25:41.730Z,97328.14
2019-05-14T04:28:12.888Z,97332.80
2019-05-14T04:30:42.640Z,97328.27
2019-05-14T04:33:10.726Z,97331.56
2019-05-14T04:35:40.093Z,97331.89
2019-05-14T04:38:09.620Z,97329.64
2019-05-14T04:40:35.954Z,97326.70
2019-05-14T04:43:03.043Z,97320.44
2019-05-14T04:45:31.569Z,97323.06
2019-05-14T04:48:00.137Z,97316.95
2019-05-14T04:50:29.654Z,97315.35
2019-05-14T04:52:59.614Z,97310.06
2019-05-14T04:55:29.692Z,97305.07
2019-05-14T04:57:58.921Z,97310.36
2019-05-14T05:00:24.748Z,97309.80
2019-05-14T05:02:51.832Z,97311.86
2019-05-14T05:05:19.770Z,97318.48
2019-05-14T05:07:49.223Z,97320.95
2019-05-14T05:10:19.050Z,97312.48
2019-05-14T05:12:45.075Z,97314.25
2019-05-14T05:15:12.142Z,97311.97
2019-05-14T05:17:47.675Z,97307.74
2019-05-14T05:20:09.862Z,97310.12
2019-05-14T05:22:39.360Z,97305.84
2019-05-14T05:25:08.322Z,97313.50
2019-05-14T05:27:35.175Z,97300.14
2019-05-14T05:30:02.280Z,97302.91
2019-05-14T05:32:29.303Z,97299.25
2019-05-14T05:34:58.587Z,97295.23
2019-05-14T05:37:25.356Z,97299.22
2019-05-14T05:39:52.423Z,97300.45
2019-05-14T05:42:19.474Z,97308.38
2019-05-14T05:44:48.373Z,97302.53
2019-05-14T05:47:18.037Z,97311.39
2019-05-14T05:49:44.691Z,97319.63
2019-05-14T05:52:11.777Z,97312.28
2019-05-14T05:54:38.854Z,97318.59
2019-05-14T05:57:05.966Z,97319.41
2019-05-14T05:59:33.043Z,97317.08
2019-05-14T06:02:00.114Z,97321.14
2019-05-14T06:04:28.992Z,97317.66
2019-05-14T06:06:58.519Z,97315.73
2019-05-14T06:09:25.167Z,97315.84
2019-05-14T06:11:52.224Z,97319.86
2019-05-14T06:14:19.323Z,97311.52
2019-05-14T06:16:48.662Z,97308.95
2019-05-14T06:19:15.392Z,97307.55
2019-05-14T06:21:42.474Z,97301.84
2019-05-14T06:24:09.585Z,97301.31
2019-05-14T06:26:38.432Z,97299.80
2019-05-14T06:29:08.178Z,97289.00
2019-05-14T06:31:34.561Z,97288.59
2019-05-14T06:34:01.651Z,97288.19
2019-05-14T06:36:29.223Z,97291.72
2019-05-14T06:38:58.586Z,97284.49
2019-05-14T06:41:28.194Z,97285.32
2019-05-14T06:43:54.414Z,97284.52
2019-05-14T06:46:21.526Z,97283.81
2019-05-14T06:48:48.892Z,97270.90
2019-05-14T06:51:16.118Z,97278.64
2019-05-14T06:53:43.178Z,97277.58
2019-05-14T06:56:10.306Z,97272.97
2019-05-14T06:58:39.025Z,97276.06
2019-05-14T07:01:06.250Z,97264.50
2019-05-14T07:03:33.353Z,97265.44
2019-05-14T07:06:00.415Z,97264.16
2019-05-14T07:08:28.503Z,97265.44
2019-05-14T07:10:55.845Z,97262.30
2019-05-14T07:13:22.925Z,97256.42
2019-05-14T07:15:50.025Z,97258.08
2019-05-14T07:18:19.057Z,97259.38
2019-05-14T07:20:48.103Z,97260.41
2019-05-14T07:23:15.103Z,97252.36
2019-05-14T07:25:42.264Z,97246.68
2019-05-14T07:28:09.322Z,97250.61
2019-05-14T07:30:39.360Z,97248.13
2019-05-14T07:33:05.378Z,97250.09
2019-05-14T07:35:32.488Z,97239.34
2019-05-14T07:37:59.578Z,97234.55
2019-05-14T07:40:29.035Z,97245.28
2019-05-14T07:42:58.202Z,97236.51
2019-05-14T07:45:25.098Z,97233.50
2019-05-14T07:47:52.154Z,97230.55
2019-05-14T07:50:19.713Z,97226.97
2019-05-14T07:52:49.548Z,97223.50
2019-05-14T07:55:18.346Z,97229.80
2019-05-14T07:57:44.799Z,97223.39
2019-05-14T08:00:11.995Z,97225.94
2019-05-14T08:02:39.047Z,97218.05
2019-05-14T08:05:08.607Z,97216.99
2019-05-14T08:07:35.383Z,97199.20
2019-05-14T08:10:02.484Z,97210.87
2019-05-14T08:12:29.537Z,97192.77
2019-05-14T08:15:13.772Z,97204.95
2019-05-14T08:17:27.983Z,97207.66
2019-05-14T08:19:54.596Z,97202.71
2019-05-14T08:22:21.688Z,97199.63
2019-05-14T08:24:49.114Z,97194.72
2019-05-14T08:27:16.236Z,97178.36
2019-05-14T08:29:43.300Z,97174.02
2019-05-14T08:32:10.382Z,97180.87
2019-05-14T08:34:38.999Z,97175.36
2019-05-14T08:37:08.297Z,97168.69
2019-05-14T08:39:35.498Z,97171.94
2019-05-14T08:42:04.330Z,97170.88
2019-05-14T08:44:31.571Z,97172.67
2019-05-14T08:46:59.146Z,97170.95
2019-05-14T08:49:38.947Z,97166.73
2019-05-14T08:51:55.430Z,97170.83
2019-05-14T08:54:22.809Z,97170.83
2019-05-14T08:56:49.874Z,97161.29
2019-05-14T08:59:19.403Z,97171.64
2019-05-14T09:01:58.519Z,97175.25
2019-05-14T09:04:14.927Z,97178.70
2019-05-14T09:06:41.970Z,97183.77
2019-05-14T09:09:09.451Z,97181.23
2019-05-14T09:11:44.066Z,97179.30
2019-05-14T09:14:10.371Z,97186.58
2019-05-14T09:16:45.967Z,97183.73
2019-05-14T09:19:03.857Z,97188.67
2019-05-14T09:21:30.899Z,97183.33
2019-05-14T09:23:58.772Z,97175.74
2019-05-14T09:26:25.930Z,97179.47
2019-05-14T09:28:54.903Z,97177.20
2019-05-14T09:31:21.951Z,97168.83
2019-05-14T09:33:49.586Z,97164.22
2019-05-14T09:36:20.424Z,97155.48
2019-05-14T09:38:45.935Z,97154.12
2019-05-14T09:41:15.396Z,97158.85
2019-05-14T09:43:41.955Z,97150.78
2019-05-14T09:46:09.225Z,97153.91
2019-05-14T09:48:38.050Z,97155.47
2019-05-14T09:51:05.348Z,97154.00
2019-05-14T09:53:32.394Z,97160.29
2019-05-14T09:55:59.460Z,97158.33
2019-05-14T09:58:28.259Z,97153.33
2019-05-14T10:00:55.478Z,97155.59
2019-05-14T10:03:22.528Z,97154.69
2019-05-14T10:05:50.189Z,97140.16
2019-05-14T10:08:19.334Z,97142.56
2019-05-14T10:10:48.849Z,97151.73
2019-05-14T10:13:15.766Z,97139.12
2019-05-14T10:15:42.813Z,97130.28
2019-05-14T10:18:11.781Z,97130.90
2019-05-14T10:20:45.375Z,97123.26
2019-05-14T10:23:09.248Z,97113.66
2019-05-14T10:25:40.285Z,97111.80
2019-05-14T10:28:05.490Z,97102.20
2019-05-14T10:30:32.579Z,97097.18
2019-05-14T10:33:09.127Z,97090.42
2019-05-14T10:35:28.698Z,97075.08
2019-05-14T10:37:55.725Z,97068.83
2019-05-14T10:40:24.640Z,97086.23
2019-05-14T10:42:51.671Z,97086.58
2019-05-14T10:45:18.934Z,97087.95
2019-05-14T10:47:45.970Z,97089.98
2019-05-14T10:50:14.127Z,97096.37
2019-05-14T10:52:41.293Z,97104.36
2019-05-14T10:55:08.446Z,97115.55
2019-05-14T10:57:35.531Z,97110.16
2019-05-14T11:00:02.715Z,97111.76
2019-05-14T11:02:29.762Z,97091.27
2019-05-14T11:04:58.667Z,97093.30
2019-05-14T11:07:25.797Z,97092.97
2019-05-14T11:09:52.897Z,97092.91
2019-05-14T11:12:19.918Z,97078.92
2019-05-14T11:14:49.208Z,97071.45
2019-05-14T11:17:15.969Z,97078.41
2019-05-14T11:19:43.045Z,97065.81
2019-05-14T11:22:10.155Z,97060.45
2019-05-14T11:24:38.623Z,97056.98
2019-05-14T11:27:06.044Z,97040.98
2019-05-14T11:29:33.166Z,97053.19
2019-05-14T11:32:00.231Z,97037.92
2019-05-14T11:34:28.751Z,97042.38
2019-05-14T11:36:58.717Z,97038.50
2019-05-14T11:39:25.385Z,97027.58
2019-05-14T11:41:52.481Z,97029.71
2019-05-14T11:44:19.556Z,97034.45
2019-05-14T11:46:57.308Z,97046.28
2019-05-14T11:49:15.667Z,97055.08
2019-05-14T11:54:11.849Z,97060.98
2019-05-14T11:56:41.848Z,97067.03
2019-05-14T11:59:08.575Z,97062.85
2019-05-14T12:01:39.038Z,97042.63
2019-05-14T12:04:04.946Z,97042.63
2019-05-14T12:06:32.061Z,97026.68
2019-05-14T12:08:59.201Z,97018.05
2019-05-14T12:11:28.913Z,96937.06
2019-05-14T12:13:55.359Z,97019.88
2019-05-14T12:16:22.677Z,97002.54
2019-05-14T12:18:49.754Z,97002.54
2019-05-14T12:21:16.861Z,97003.98
2019-05-14T12:23:43.954Z,96999.48
2019-05-14T12:26:11.060Z,96997.39
2019-05-14T12:28:38.812Z,96990.55
2019-05-14T12:31:06.043Z,96988.06
2019-05-14T12:33:33.173Z,96977.80
2019-05-14T12:36:00.762Z,96971.30
2019-05-14T12:38:29.664Z,96956.95
2019-05-14T12:40:58.539Z,96956.08
2019-05-14T12:43:28.084Z,96954.34
2019-05-14T12:45:54.872Z,96949.89
2019-05-14T12:48:21.960Z,96941.52
2019-05-14T12:50:49.161Z,96947.94
2019-05-14T12:53:16.236Z,96951.76
2019-05-14T12:55:43.361Z,96974.48
2019-05-14T12:58:10.428Z,96973.03
2019-05-14T13:00:39.395Z,96968.27
2019-05-14T13:03:08.906Z,96966.66
2019-05-14T13:05:35.506Z,96956.92
2019-05-14T13:08:02.607Z,96950.56
2019-05-14T13:10:29.938Z,96947.96
2019-05-14T13:12:58.847Z,96947.77
2019-05-14T13:15:28.503Z,96947.68
2019-05-14T13:17:55.064Z,96947.41
2019-05-14T13:20:22.127Z,96943.42
2019-05-14T13:22:50.384Z,96945.57
2019-05-14T13:25:18.850Z,96942.48
2019-05-14T13:27:46.780Z,96932.58
2019-05-14T13:30:14.377Z,96931.53
2019-05-14T13:32:41.607Z,96936.71
2019-05-14T13:35:13.262Z,96941.25
2019-05-14T13:37:39.825Z,96951.34
2019-05-14T13:40:09.211Z,96955.14
2019-05-14T13:42:39.353Z,96960.36
2019-05-14T13:45:05.775Z,96942.94
2019-05-14T13:47:32.873Z,96941.25
2019-05-14T13:50:00.035Z,96927.66
2019-05-14T13:52:29.279Z,96931.61
2019-05-14T13:54:56.097Z,96925.92
2019-05-14T13:57:23.199Z,96924.99
2019-05-14T13:59:50.320Z,96911.40
2019-05-14T14:02:18.921Z,96904.90
2019-05-14T14:04:48.200Z,96905.52
2019-05-14T14:07:15.193Z,96898.31
2019-05-14T14:09:42.311Z,96898.17
2019-05-14T14:12:09.379Z,96897.17
2019-05-14T14:14:38.656Z,96883.23
2019-05-14T14:17:05.466Z,96887.05
2019-05-14T14:19:33.008Z,96899.37
2019-05-14T14:22:00.086Z,96900.27
2019-05-14T14:24:29.034Z,96926.81
2019-05-14T14:26:58.335Z,96923.22
2019-05-14T14:29:25.222Z,96925.48
2019-05-14T14:31:52.310Z,96917.67
2019-05-14T14:34:19.405Z,96918.30
2019-05-14T14:36:49.699Z,96934.54
2019-05-14T14:39:15.483Z,96933.44
2019-05-14T14:41:42.578Z,96927.61
2019-05-14T14:44:09.715Z,96910.17
2019-05-14T14:46:39.028Z,96912.08
2019-05-14T14:49:05.935Z,96897.15
2019-05-14T14:51:33.193Z,96880.92
2019-05-14T14:54:10.180Z,96882.85
2019-05-14T14:56:29.311Z,96882.85
2019-05-14T14:58:56.429Z,96878.40
2019-05-14T15:01:31.886Z,96869.91
2019-05-14T15:04:00.071Z,96877.22
2019-05-14T15:06:35.022Z,96864.95
2019-05-14T15:09:04.091Z,96854.76
2019-05-14T15:11:31.340Z,96858.00
2019-05-14T15:13:58.817Z,96854.22
2019-05-14T15:16:39.160Z,96855.00
2019-05-14T15:19:19.318Z,96849.16
2019-05-14T15:21:58.995Z,96848.02
2019-05-14T15:24:32.130Z,96850.71
2019-05-14T15:27:08.003Z,96855.86
2019-05-14T15:29:34.343Z,96855.19
2019-05-14T15:32:01.474Z,96864.66
2019-05-14T15:34:29.746Z,96870.98
2019-05-14T15:37:03.589Z,96885.38
2019-05-14T15:39:43.733Z,96936.19
2019-05-14T15:42:24.004Z,96936.19
2019-05-14T15:44:55.808Z,96961.63
2019-05-14T15:47:30.113Z,96963.60
2019-05-14T15:49:59.504Z,96935.54
2019-05-14T15:52:33.092Z,96920.74
2019-05-14T15:55:00.182Z,96928.45
2019-05-14T15:57:28.869Z,96919.59
2019-05-14T16:00:29.153Z,96918.98
2019-05-14T16:03:03.667Z,96909.09
2019-05-14T16:05:30.789Z,96900.05
2019-05-14T16:07:59.384Z,96896.55
2019-05-14T16:10:33.937Z,96893.23
2019-05-14T16:13:01.082Z,96891.80
2019-05-14T16:15:28.205Z,96887.45
2019-05-14T16:18:07.038Z,96884.89
2019-05-14T16:20:30.395Z,96880.80
2019-05-14T16:22:58.991Z,96876.09
2019-05-14T16:25:38.060Z,96872.19
2019-05-14T16:28:12.795Z,96879.53
2019-05-14T16:30:39.996Z,96869.88
2019-05-14T16:33:09.214Z,96871.83
2019-05-14T16:35:42.990Z,96869.25
2019-05-14T16:38:29.792Z,96869.39
2019-05-14T16:40:59.625Z,96865.08
2019-05-14T16:43:32.803Z,96863.52
2019-05-14T16:46:09.602Z,96861.36
2019-05-14T16:48:42.943Z,96858.30
2019-05-14T16:51:10.119Z,96855.25
2019-05-14T16:53:37.990Z,96854.27
2019-05-14T16:56:12.886Z,96850.12
2019-05-14T16:58:40.048Z,96854.71
2019-05-14T17:01:09.692Z,96849.88
2019-05-14T17:03:48.967Z,96852.98
2019-05-14T17:06:25.136Z,96854.72
2019-05-14T17:08:52.328Z,96858.25
2019-05-14T17:11:19.523Z,96853.44
2019-05-14T17:13:48.898Z,96853.90
2019-05-14T17:16:22.046Z,96856.45
2019-05-14T17:18:49.380Z,96852.25
2019-05-14T17:21:18.272Z,96857.34
2019-05-14T17:23:51.657Z,96843.84
2019-05-14T17:26:18.864Z,96841.21
2019-05-14T17:28:48.645Z,96848.14
2019-05-14T17:31:34.654Z,96844.66
2019-05-14T17:34:01.881Z,96849.80
2019-05-14T17:36:29.091Z,96843.69
2019-05-14T17:38:58.597Z,96855.48
2019-05-14T17:41:32.268Z,96868.13
2019-05-14T17:43:59.391Z,96891.10
2019-05-14T17:46:28.842Z,96927.23
2019-05-14T17:49:02.304Z,96923.13
2019-05-14T17:51:29.434Z,96937.70
2019-05-14T17:53:58.539Z,96935.26
2019-05-14T17:56:31.569Z,96926.59
2019-05-14T17:58:58.681Z,96916.41
2019-05-14T18:01:25.771Z,96900.03
2019-05-14T18:03:52.935Z,96897.06
2019-05-14T18:06:20.599Z,96906.19
2019-05-14T18:08:47.721Z,96907.95
2019-05-14T18:11:14.838Z,96894.79
2019-05-14T18:13:42.173Z,96888.38
2019-05-14T18:16:09.357Z,96891.80
2019-05-14T18:18:36.508Z,96886.77
2019-05-14T18:21:03.623Z,96879.35
2019-05-14T18:23:30.755Z,96880.66
2019-05-14T18:26:07.149Z,96881.58
2019-05-14T18:28:33.533Z,96885.14
2019-05-14T18:31:01.185Z,96880.62
2019-05-14T18:33:31.090Z,96884.01
2019-05-14T18:36:03.713Z,96892.65
2019-05-14T18:38:30.810Z,96894.89
2019-05-14T18:40:58.610Z,96897.36
2019-05-14T18:43:33.515Z,96892.05
2019-05-14T18:46:00.652Z,96898.25
2019-05-14T18:48:28.950Z,96899.58
2019-05-14T18:51:03.334Z,96896.70
2019-05-14T18:53:30.476Z,96896.16
2019-05-14T18:55:59.665Z,96904.08
2019-05-14T18:58:33.066Z,96895.41
2019-05-14T19:01:00.225Z,96897.45
2019-05-14T19:03:28.517Z,96892.07
2019-05-14T19:06:02.882Z,96894.05
2019-05-14T19:08:30.021Z,96895.25
2019-05-14T19:10:59.290Z,96896.86
2019-05-14T19:13:32.978Z,96896.94
2019-05-14T19:16:00.243Z,96900.63
2019-05-14T19:18:28.636Z,96894.66
2019-05-14T19:21:02.855Z,96896.31
2019-05-14T19:23:29.990Z,96895.61
2019-05-14T19:25:59.130Z,96899.73
2019-05-14T19:28:32.700Z,96895.41
2019-05-14T19:30:59.813Z,96909.27
2019-05-14T19:33:28.688Z,96901.77
2019-05-14T19:36:02.055Z,96905.15
2019-05-14T19:38:29.150Z,96902.80
2019-05-14T19:40:56.277Z,96907.94
2019-05-14T19:43:23.442Z,96907.11
2019-05-14T19:45:50.707Z,96905.89
2019-05-14T19:48:18.911Z,96907.86
2019-05-14T19:51:01.254Z,96903.86
2019-05-14T19:53:28.516Z,96907.03
2019-05-14T19:55:55.519Z,96905.82
2019-05-14T19:58:22.639Z,96899.14
2019-05-14T20:00:49.739Z,96899.22
2019-05-14T20:03:18.714Z,96900.13
2019-05-14T20:05:52.282Z,96896.04
2019-05-14T20:08:19.441Z,96896.36
2019-05-14T20:10:48.784Z,96895.97
2019-05-14T20:13:25.385Z,96897.50
2019-05-14T20:15:52.603Z,96896.36
2019-05-14T20:18:19.762Z,96887.95
2019-05-14T20:20:49.074Z,96889.17
2019-05-14T20:23:22.572Z,96891.14
2019-05-14T20:25:49.719Z,96884.66
2019-05-14T20:28:18.950Z,96882.18
2019-05-14T20:30:52.837Z,96882.96
2019-05-14T20:33:19.984Z,96879.98
2019-05-14T20:35:48.562Z,96886.58
2019-05-14T20:38:22.356Z,96878.95
2019-05-14T20:40:49.477Z,96880.09
2019-05-14T20:43:18.476Z,96874.20
2019-05-14T20:45:52.386Z,96879.77
2019-05-14T20:48:19.514Z,96877.89
2019-05-14T20:50:46.593Z,96877.30
2019-05-14T20:53:13.650Z,96879.08
2019-05-14T20:55:40.776Z,96868.95
2019-05-14T20:58:08.082Z,96869.37
2019-05-14T21:00:35.321Z,96868.64
2019-05-14T21:03:02.456Z,96862.78
2019-05-14T21:05:29.598Z,96865.45
2019-05-14T21:07:59.042Z,96861.45
2019-05-14T21:10:31.986Z,96867.93
2019-05-14T21:12:59.438Z,96863.84
2019-05-14T21:15:28.531Z,96864.47
2019-05-14T21:21:05.252Z,96871.09
2019-05-14T21:26:12.187Z,96871.02
2019-05-14T21:28:40.101Z,96863.52
2019-05-14T21:31:10.181Z,96866.74
2019-05-14T21:33:43.384Z,96868.79
2019-05-14T21:36:12.358Z,96865.06
2019-05-14T21:41:26.130Z,96869.77
2019-05-14T21:43:53.875Z,96863.21
2019-05-14T21:46:21.378Z,96866.98
2019-05-14T21:48:48.497Z,96872.05
2019-05-14T21:51:17.674Z,96869.06
2019-05-14T21:53:50.885Z,96868.12
2019-05-14T21:56:21.867Z,96865.77
2019-05-14T22:01:58.882Z,96868.05
2019-05-14T22:04:38.475Z,96873.46
2019-05-14T22:09:51.421Z,96865.14
2019-05-14T22:12:20.662Z,96862.16
2019-05-14T22:14:53.961Z,96859.99
2019-05-14T22:17:21.159Z,96859.67
2019-05-14T22:19:49.423Z,96852.89
2019-05-14T22:22:18.679Z,96848.38
2019-05-14T22:24:52.534Z,96848.17
2019-05-14T22:27:20.893Z,96847.86
2019-05-14T22:29:48.311Z,96857.41
2019-05-14T22:32:18.918Z,96851.23
2019-05-14T22:34:51.819Z,96851.47
2019-05-14T22:37:20.193Z,96848.92
2019-05-14T22:39:54.680Z,96849.74
2019-05-14T22:42:21.772Z,96840.59
2019-05-14T22:44:50.366Z,96836.39
2019-05-14T22:47:24.123Z,96838.95
2019-05-14T22:49:51.240Z,96840.40
2019-05-14T22:55:42.617Z,96831.88
2019-05-14T22:58:24.524Z,96830.58
2019-05-14T23:00:57.483Z,96829.18
2019-05-14T23:03:21.221Z,96821.99
2019-05-14T23:05:59.550Z,96831.97
2019-05-14T23:08:27.379Z,96829.30
2019-05-14T23:10:55.166Z,96835.20
2019-05-14T23:13:22.517Z,96826.84
2019-05-14T23:15:58.886Z,96833.52
2019-05-14T23:18:38.038Z,96828.58
2019-05-14T23:21:12.011Z,96831.05
2019-05-14T23:23:39.462Z,96828.38
2019-05-14T23:26:08.605Z,96821.70
2019-05-14T23:28:49.018Z,96824.57
2019-05-14T23:31:22.022Z,96824.53
2019-05-14T23:33:49.347Z,96822.97
2019-05-14T23:36:18.274Z,96819.79
2019-05-14T23:38:52.528Z,96817.94
2019-05-14T23:41:19.893Z,96817.63
2019-05-14T23:43:47.440Z,96819.98
2019-05-14T23:46:14.775Z,96810.88
2019-05-14T23:48:42.273Z,96808.09
2019-05-14T23:51:09.549Z,96803.69
2019-05-14T23:53:39.074Z,96799.56
2019-05-14T23:56:16.200Z,96798.16
2019-05-14T23:58:54.784Z,96797.02
